createdAt,value
2018-09-30T00:00:51.170Z,101755.34
2018-09-30T00:01:56.641Z,101751.91
2018-09-30T00:03:02.200Z,101748.09
2018-09-30T00:04:07.713Z,101748.53
2018-09-30T00:05:13.229Z,101745.13
2018-09-30T00:06:18.653Z,101750.24
2018-09-30T00:07:24.318Z,101748.53
2018-09-30T00:08:29.764Z,101745.94
2018-09-30T00:09:35.296Z,101742.55
2018-09-30T00:10:40.899Z,101742.15
2018-09-30T00:11:46.438Z,101740.89
2018-09-30T00:12:51.946Z,101736.17
2018-09-30T00:13:57.405Z,101737.05
2018-09-30T00:15:02.944Z,101729.81
2018-09-30T00:16:08.462Z,101736.18
2018-09-30T00:17:13.946Z,101727.22
2018-09-30T00:18:19.421Z,101723.39
2018-09-30T00:19:25.316Z,101719.95
2018-09-30T00:20:31.004Z,101722.93
2018-09-30T00:21:36.424Z,101719.95
2018-09-30T00:22:41.899Z,101716.08
2018-09-30T00:23:52.467Z,101717.31
2018-09-30T00:25:03.036Z,101719.39
2018-09-30T00:26:13.955Z,101713.84
2018-09-30T00:27:21.223Z,101718.16
2018-09-30T00:28:26.652Z,101713.95
2018-09-30T00:29:32.075Z,101713.98
2018-09-30T00:30:37.617Z,101710.58
2018-09-30T00:31:43.093Z,101712.70
2018-09-30T00:32:48.560Z,101712.69
2018-09-30T00:33:59.044Z,101709.31
2018-09-30T00:35:04.477Z,101705.89
2018-09-30T00:36:10.048Z,101698.67
2018-09-30T00:37:15.437Z,101700.80
2018-09-30T00:38:20.973Z,101696.99
2018-09-30T00:39:27.182Z,101698.72
2018-09-30T00:40:32.713Z,101693.61
2018-09-30T00:41:38.207Z,101693.64
2018-09-30T00:42:43.680Z,101695.34
2018-09-30T00:43:49.258Z,101691.52
2018-09-30T00:44:54.812Z,101693.19
2018-09-30T00:46:00.330Z,101683.83
2018-09-30T00:47:05.825Z,101685.98
2018-09-30T00:48:11.281Z,101686.41
2018-09-30T00:49:16.902Z,101685.17
2018-09-30T00:50:22.366Z,101678.81
2018-09-30T00:51:28.009Z,101684.30
2018-09-30T00:52:33.494Z,101673.66
2018-09-30T00:53:39.160Z,101678.76
2018-09-30T00:54:44.652Z,101674.51
2018-09-30T00:55:50.103Z,101673.66
2018-09-30T00:56:55.654Z,101668.97
2018-09-30T00:58:01.132Z,101671.11
2018-09-30T00:59:06.674Z,101671.91
2018-09-30T01:00:12.200Z,101668.09
2018-09-30T01:01:17.641Z,101663.41
2018-09-30T01:02:23.426Z,101664.28
2018-09-30T01:03:28.883Z,101666.43
2018-09-30T01:04:34.325Z,101664.28
2018-09-30T01:05:39.762Z,101663.83
2018-09-30T01:06:45.196Z,101662.14
2018-09-30T01:07:50.752Z,101662.54
2018-09-30T01:08:56.264Z,101661.64
2018-09-30T01:10:01.673Z,101658.66
2018-09-30T01:11:07.727Z,101660.35
2018-09-30T01:12:13.152Z,101658.65
2018-09-30T01:13:18.589Z,101662.06
2018-09-30T01:14:24.209Z,101660.84
2018-09-30T01:15:29.622Z,101660.81
2018-09-30T01:16:35.228Z,101663.36
2018-09-30T01:17:40.817Z,101665.42
2018-09-30T01:18:46.265Z,101655.67
2018-09-30T01:19:51.913Z,101660.34
2018-09-30T01:20:57.317Z,101659.88
2018-09-30T01:22:02.925Z,101656.48
2018-09-30T01:23:08.373Z,101650.13
2018-09-30T01:24:13.780Z,101649.27
2018-09-30T01:25:19.245Z,101642.47
2018-09-30T01:26:24.836Z,101647.11
2018-09-30T01:27:30.368Z,101645.83
2018-09-30T01:28:35.957Z,101640.77
2018-09-30T01:29:41.356Z,101640.79
2018-09-30T01:30:46.801Z,101638.67
2018-09-30T01:31:52.329Z,101637.41
2018-09-30T01:32:57.819Z,101636.14
2018-09-30T01:34:03.265Z,101634.84
2018-09-30T01:35:09.009Z,101631.02
2018-09-30T01:36:14.465Z,101628.48
2018-09-30T01:37:20.073Z,101626.80
2018-09-30T01:38:25.584Z,101622.55
2018-09-30T01:39:31.040Z,101622.10
2018-09-30T01:40:36.638Z,101618.69
2018-09-30T01:41:42.047Z,101625.43
2018-09-30T01:42:48.069Z,101630.09
2018-09-30T01:43:53.610Z,101625.83
2018-09-30T01:44:59.033Z,101628.34
2018-09-30T01:46:04.485Z,101626.63
2018-09-30T01:47:09.965Z,101625.75
2018-09-30T01:48:15.696Z,101629.16
2018-09-30T01:49:21.154Z,101631.73
2018-09-30T01:50:26.639Z,101626.72
2018-09-30T01:51:32.115Z,101629.27
2018-09-30T01:52:52.241Z,101619.09
2018-09-30T01:53:58.017Z,101622.48
2018-09-30T01:55:03.412Z,101623.78
2018-09-30T01:56:08.874Z,101618.23
2018-09-30T01:57:14.307Z,101615.67
2018-09-30T01:58:19.724Z,101618.21
2018-09-30T01:59:25.197Z,101611.45
2018-09-30T02:00:30.605Z,101616.08
2018-09-30T02:01:36.201Z,101606.30
2018-09-30T02:02:41.600Z,101607.12
2018-09-30T02:03:47.024Z,101609.64
2018-09-30T02:04:52.456Z,101601.59
2018-09-30T02:05:57.977Z,101599.87
2018-09-30T02:07:03.426Z,101604.09
2018-09-30T02:08:08.889Z,101604.54
2018-09-30T02:09:14.353Z,101604.52
2018-09-30T02:10:19.885Z,101601.98
2018-09-30T02:11:25.588Z,101599.87
2018-09-30T02:12:31.000Z,101603.25
2018-09-30T02:13:36.416Z,101596.86
2018-09-30T02:14:41.877Z,101601.95
2018-09-30T02:15:47.351Z,101596.42
2018-09-30T02:16:53.047Z,101589.22
2018-09-30T02:17:58.529Z,101584.12
2018-09-30T02:19:04.014Z,101584.98
2018-09-30T02:20:12.185Z,101591.78
2018-09-30T02:21:20.294Z,101586.24
2018-09-30T02:22:26.145Z,101585.38
2018-09-30T02:23:31.718Z,101590.02
2018-09-30T02:24:37.324Z,101590.80
2018-09-30T02:25:42.766Z,101588.26
2018-09-30T02:26:48.194Z,101593.83
2018-09-30T02:27:53.657Z,101586.19
2018-09-30T02:28:59.205Z,101589.99
2018-09-30T02:30:05.045Z,101589.99
2018-09-30T02:31:10.518Z,101593.83
2018-09-30T02:32:15.922Z,101596.37
2018-09-30T02:33:21.620Z,101589.12
2018-09-30T02:34:27.197Z,101593.39
2018-09-30T02:35:32.682Z,101585.80
2018-09-30T02:36:38.171Z,101594.70
2018-09-30T02:37:43.586Z,101588.24
2018-09-30T02:38:49.053Z,101587.36
2018-09-30T02:39:54.461Z,101584.84
2018-09-30T02:41:00.054Z,101578.05
2018-09-30T02:42:05.619Z,101576.80
2018-09-30T02:43:11.101Z,101570.45
2018-09-30T02:44:16.543Z,101571.68
2018-09-30T02:45:22.001Z,101573.80
2018-09-30T02:46:27.536Z,101570.03
2018-09-30T02:47:32.961Z,101567.50
2018-09-30T02:48:38.437Z,101572.17
2018-09-30T02:49:43.909Z,101568.77
2018-09-30T02:50:49.377Z,101573.88
2018-09-30T02:51:54.842Z,101568.34
2018-09-30T02:53:00.411Z,101567.02
2018-09-30T02:54:05.821Z,101567.05
2018-09-30T02:55:11.326Z,101568.36
2018-09-30T02:56:16.745Z,101565.37
2018-09-30T02:57:22.292Z,101561.54
2018-09-30T02:58:27.725Z,101561.12
2018-09-30T02:59:33.229Z,101561.94
2018-09-30T03:00:39.040Z,101554.33
2018-09-30T03:01:44.504Z,101553.88
2018-09-30T03:02:49.973Z,101555.14
2018-09-30T03:03:55.500Z,101551.32
2018-09-30T03:05:00.956Z,101552.56
2018-09-30T03:06:09.598Z,101555.10
2018-09-30T03:07:20.217Z,101555.92
2018-09-30T03:08:30.927Z,101550.83
2018-09-30T03:09:36.385Z,101553.78
2018-09-30T03:10:42.233Z,101552.51
2018-09-30T03:11:47.705Z,101548.20
2018-09-30T03:12:53.138Z,101547.78
2018-09-30T03:13:58.719Z,101545.24
2018-09-30T03:15:04.252Z,101549.03
2018-09-30T03:16:09.667Z,101546.46
2018-09-30T03:17:15.153Z,101541.36
2018-09-30T03:18:20.789Z,101538.37
2018-09-30T03:19:26.285Z,101543.86
2018-09-30T03:20:31.789Z,101540.87
2018-09-30T03:21:37.361Z,101538.30
2018-09-30T03:22:43.037Z,101534.46
2018-09-30T03:23:48.569Z,101540.38
2018-09-30T03:24:54.042Z,101540.41
2018-09-30T03:25:59.483Z,101536.18
2018-09-30T03:27:04.979Z,101537.38
2018-09-30T03:28:10.535Z,101539.08
2018-09-30T03:29:15.985Z,101538.63
2018-09-30T03:30:21.412Z,101537.77
2018-09-30T03:31:26.857Z,101536.08
2018-09-30T03:32:32.273Z,101530.98
2018-09-30T03:33:37.759Z,101533.13
2018-09-30T03:34:43.176Z,101530.55
2018-09-30T03:35:48.621Z,101533.16
2018-09-30T03:36:54.081Z,101540.36
2018-09-30T03:37:59.549Z,101536.98
2018-09-30T03:39:08.507Z,101537.86
2018-09-30T03:40:13.969Z,101532.36
2018-09-30T03:41:19.437Z,101533.62
2018-09-30T03:42:24.948Z,101532.41
2018-09-30T03:43:30.424Z,101529.02
2018-09-30T03:44:35.980Z,101529.01
2018-09-30T03:45:41.443Z,101533.67
2018-09-30T03:46:46.908Z,101533.64
2018-09-30T03:47:52.366Z,101524.24
2018-09-30T03:48:57.816Z,101532.26
2018-09-30T03:50:03.378Z,101530.57
2018-09-30T03:51:08.896Z,101526.39
2018-09-30T03:52:14.347Z,101522.99
2018-09-30T03:53:19.892Z,101528.52
2018-09-30T03:54:25.296Z,101531.92
2018-09-30T03:55:30.842Z,101526.80
2018-09-30T03:56:36.387Z,101522.91
2018-09-30T03:57:42.280Z,101525.45
2018-09-30T03:58:47.683Z,101524.57
2018-09-30T03:59:53.122Z,101523.69
2018-09-30T04:00:58.586Z,101524.08
2018-09-30T04:02:04.057Z,101521.52
2018-09-30T04:03:09.526Z,101516.45
2018-09-30T04:04:14.945Z,101517.28
2018-09-30T04:05:20.765Z,101516.87
2018-09-30T04:06:26.178Z,101513.04
2018-09-30T04:07:31.683Z,101512.61
2018-09-30T04:08:37.404Z,101513.88
2018-09-30T04:09:42.787Z,101513.84
2018-09-30T04:10:48.421Z,101521.88
2018-09-30T04:11:53.825Z,101516.77
2018-09-30T04:12:59.484Z,101512.16
2018-09-30T04:14:04.972Z,101510.88
2018-09-30T04:15:10.494Z,101510.91
2018-09-30T04:16:16.063Z,101510.89
2018-09-30T04:17:21.532Z,101516.83
2018-09-30T04:18:26.965Z,101516.03
2018-09-30T04:19:32.393Z,101515.67
2018-09-30T04:20:37.967Z,101514.39
2018-09-30T04:21:43.694Z,101513.14
2018-09-30T04:22:49.193Z,101510.99
2018-09-30T04:24:12.025Z,101512.67
2018-09-30T04:25:17.548Z,101509.67
2018-09-30T04:26:23.160Z,101506.28
2018-09-30T04:27:29.008Z,101502.94
2018-09-30T04:28:34.473Z,101511.79
2018-09-30T04:29:39.987Z,101505.03
2018-09-30T04:30:45.425Z,101506.30
2018-09-30T04:31:50.882Z,101505.07
2018-09-30T04:32:56.485Z,101505.94
2018-09-30T04:34:02.496Z,101504.72
2018-09-30T04:35:08.097Z,101502.57
2018-09-30T04:36:13.637Z,101505.09
2018-09-30T04:37:19.100Z,101497.08
2018-09-30T04:38:25.045Z,101495.40
2018-09-30T04:39:30.498Z,101496.70
2018-09-30T04:40:35.976Z,101495.88
2018-09-30T04:41:41.424Z,101500.48
2018-09-30T04:42:47.013Z,101498.31
2018-09-30T04:43:52.520Z,101497.47
2018-09-30T04:44:57.962Z,101495.84
2018-09-30T04:46:03.459Z,101495.87
2018-09-30T04:47:08.920Z,101501.78
2018-09-30T04:48:14.393Z,101500.52
2018-09-30T04:49:19.980Z,101493.34
2018-09-30T04:50:25.541Z,101497.09
2018-09-30T04:51:31.036Z,101494.13
2018-09-30T04:52:36.481Z,101493.27
2018-09-30T04:53:42.074Z,101489.89
2018-09-30T04:54:47.555Z,101497.47
2018-09-30T04:55:53.017Z,101495.67
2018-09-30T04:56:58.525Z,101492.60
2018-09-30T04:58:04.094Z,101492.13
2018-09-30T04:59:09.582Z,101490.41
2018-09-30T05:00:15.142Z,101497.59
2018-09-30T05:01:20.597Z,101497.14
2018-09-30T05:02:26.054Z,101497.20
2018-09-30T05:03:31.469Z,101496.39
2018-09-30T05:04:36.986Z,101491.63
2018-09-30T05:05:42.612Z,101495.08
2018-09-30T05:06:48.169Z,101495.97
2018-09-30T05:07:53.637Z,101491.72
2018-09-30T05:08:59.234Z,101493.40
2018-09-30T05:10:04.774Z,101499.70
2018-09-30T05:11:10.232Z,101494.16
2018-09-30T05:12:15.657Z,101494.57
2018-09-30T05:13:21.382Z,101496.64
2018-09-30T05:14:26.821Z,101497.91
2018-09-30T05:15:32.428Z,101495.33
2018-09-30T05:16:37.891Z,101495.30
2018-09-30T05:17:43.378Z,101492.29
2018-09-30T05:18:48.788Z,101497.81
2018-09-30T05:19:54.640Z,101490.24
2018-09-30T05:21:00.165Z,101494.95
2018-09-30T05:22:05.603Z,101492.42
2018-09-30T05:23:11.080Z,101490.70
2018-09-30T05:24:16.537Z,101495.76
2018-09-30T05:25:22.078Z,101496.16
2018-09-30T05:26:27.553Z,101493.64
2018-09-30T05:27:33.011Z,101491.15
2018-09-30T05:28:38.494Z,101488.62
2018-09-30T05:29:43.984Z,101486.98
2018-09-30T05:30:49.592Z,101480.66
2018-09-30T05:31:55.023Z,101481.05
2018-09-30T05:33:00.640Z,101476.73
2018-09-30T05:34:06.233Z,101480.48
2018-09-30T05:35:11.770Z,101476.63
2018-09-30T05:36:17.308Z,101479.12
2018-09-30T05:37:22.784Z,101477.85
2018-09-30T05:38:28.310Z,101474.06
2018-09-30T05:39:33.856Z,101471.48
2018-09-30T05:40:39.323Z,101468.91
2018-09-30T05:41:45.057Z,101461.27
2018-09-30T05:42:50.478Z,101463.38
2018-09-30T05:43:55.898Z,101461.27
2018-09-30T05:45:01.402Z,101463.42
2018-09-30T05:46:07.042Z,101457.95
2018-09-30T05:47:12.503Z,101459.67
2018-09-30T05:48:17.901Z,101460.53
2018-09-30T05:49:23.405Z,101457.63
2018-09-30T05:50:28.893Z,101454.27
2018-09-30T05:51:34.384Z,101453.46
2018-09-30T05:52:39.906Z,101451.78
2018-09-30T05:53:45.347Z,101451.78
2018-09-30T05:54:50.776Z,101456.87
2018-09-30T05:55:56.376Z,101451.80
2018-09-30T05:57:01.901Z,101459.88
2018-09-30T05:58:07.660Z,101454.33
2018-09-30T05:59:13.060Z,101452.26
2018-09-30T06:00:18.996Z,101455.62
2018-09-30T06:01:24.470Z,101453.05
2018-09-30T06:02:29.938Z,101449.31
2018-09-30T06:03:35.717Z,101454.82
2018-09-30T06:04:41.113Z,101448.06
2018-09-30T06:05:46.684Z,101452.75
2018-09-30T06:06:52.180Z,101449.37
2018-09-30T06:07:57.641Z,101443.47
2018-09-30T06:09:04.096Z,101441.41
2018-09-30T06:10:09.613Z,101443.98
2018-09-30T06:11:15.158Z,101446.07
2018-09-30T06:12:20.597Z,101441.83
2018-09-30T06:13:26.133Z,101451.52
2018-09-30T06:14:32.050Z,101444.75
2018-09-30T06:15:38.112Z,101444.80
2018-09-30T06:16:44.161Z,101443.98
2018-09-30T06:17:50.344Z,101443.94
2018-09-30T06:18:57.821Z,101442.70
2018-09-30T06:20:08.872Z,101442.30
2018-09-30T06:21:14.515Z,101439.77
2018-09-30T06:22:20.102Z,101441.48
2018-09-30T06:23:25.611Z,101445.34
2018-09-30T06:24:31.027Z,101441.10
2018-09-30T06:25:36.650Z,101436.88
2018-09-30T06:26:42.409Z,101442.00
2018-09-30T06:27:47.892Z,101444.61
2018-09-30T06:28:53.390Z,101446.72
2018-09-30T06:29:58.829Z,101442.08
2018-09-30T06:31:04.781Z,101441.20
2018-09-30T06:32:10.220Z,101447.58
2018-09-30T06:33:15.640Z,101449.73
2018-09-30T06:34:21.046Z,101451.01
2018-09-30T06:35:26.568Z,101451.47
2018-09-30T06:36:32.117Z,101452.79
2018-09-30T06:37:37.768Z,101454.11
2018-09-30T06:38:43.229Z,101454.56
2018-09-30T06:39:48.761Z,101455.04
2018-09-30T06:40:54.229Z,101446.52
2018-09-30T06:41:59.737Z,101452.02
2018-09-30T06:43:05.263Z,101458.80
2018-09-30T06:44:10.772Z,101452.50
2018-09-30T06:45:16.724Z,101456.77
2018-09-30T06:46:22.077Z,101455.52
2018-09-30T06:47:27.525Z,101460.20
2018-09-30T06:48:33.046Z,101462.39
2018-09-30T06:49:38.558Z,101461.52
2018-09-30T06:50:44.165Z,101463.27
2018-09-30T06:51:49.909Z,101466.22
2018-09-30T06:52:55.809Z,101469.60
2018-09-30T06:54:01.313Z,101466.27
2018-09-30T06:55:07.112Z,101462.92
2018-09-30T06:56:12.688Z,101465.47
2018-09-30T06:57:18.162Z,101464.64
2018-09-30T06:58:23.686Z,101462.55
2018-09-30T06:59:29.160Z,101463.87
2018-09-30T07:00:34.666Z,101464.34
2018-09-30T07:01:41.120Z,101466.04
2018-09-30T07:02:46.592Z,101466.89
2018-09-30T07:03:52.125Z,101461.84
2018-09-30T07:04:57.726Z,101465.67
2018-09-30T07:06:03.197Z,101462.73
2018-09-30T07:07:08.679Z,101464.47
2018-09-30T07:08:14.510Z,101463.61
2018-09-30T07:09:20.045Z,101464.94
2018-09-30T07:10:25.849Z,101466.21
2018-09-30T07:11:31.256Z,101463.67
2018-09-30T07:12:36.756Z,101469.21
2018-09-30T07:13:42.192Z,101475.59
2018-09-30T07:14:47.797Z,101470.48
2018-09-30T07:15:53.232Z,101468.78
2018-09-30T07:16:58.689Z,101468.80
2018-09-30T07:18:04.239Z,101467.50
2018-09-30T07:19:09.832Z,101468.77
2018-09-30T07:20:15.445Z,101476.44
2018-09-30T07:21:21.057Z,101466.65
2018-09-30T07:22:26.574Z,101466.63
2018-09-30T07:23:32.069Z,101463.20
2018-09-30T07:24:40.868Z,101467.89
2018-09-30T07:25:46.413Z,101462.75
2018-09-30T07:26:52.612Z,101469.14
2018-09-30T07:27:58.189Z,101464.48
2018-09-30T07:29:03.642Z,101465.72
2018-09-30T07:30:09.126Z,101463.17
2018-09-30T07:31:14.556Z,101464.84
2018-09-30T07:32:20.470Z,101462.70
2018-09-30T07:33:25.976Z,101470.75
2018-09-30T07:34:32.834Z,101470.31
2018-09-30T07:35:38.430Z,101468.16
2018-09-30T07:36:46.715Z,101466.84
2018-09-30T07:37:52.769Z,101465.96
2018-09-30T07:38:58.236Z,101462.12
2018-09-30T07:40:03.757Z,101463.00
2018-09-30T07:41:09.230Z,101467.23
2018-09-30T07:42:14.825Z,101469.30
2018-09-30T07:43:20.310Z,101467.58
2018-09-30T07:44:25.940Z,101464.56
2018-09-30T07:45:31.420Z,101467.06
2018-09-30T07:46:37.252Z,101468.29
2018-09-30T07:47:42.798Z,101465.72
2018-09-30T07:48:48.362Z,101461.42
2018-09-30T07:49:53.912Z,101457.53
2018-09-30T07:50:59.380Z,101464.75
2018-09-30T07:52:04.788Z,101462.63
2018-09-30T07:53:10.373Z,101457.47
2018-09-30T07:54:15.908Z,101458.73
2018-09-30T07:55:21.337Z,101458.68
2018-09-30T07:56:27.361Z,101458.27
2018-09-30T07:57:32.788Z,101450.53
2018-09-30T07:58:38.411Z,101451.13
2018-09-30T07:59:43.895Z,101455.41
2018-09-30T08:00:49.413Z,101454.91
2018-09-30T08:01:55.213Z,101447.61
2018-09-30T08:03:00.681Z,101452.72
2018-09-30T08:04:06.102Z,101442.41
2018-09-30T08:05:11.635Z,101444.50
2018-09-30T08:06:17.134Z,101447.82
2018-09-30T08:07:22.549Z,101450.73
2018-09-30T08:08:28.071Z,101448.09
2018-09-30T08:09:33.637Z,101446.33
2018-09-30T08:10:39.041Z,101449.24
2018-09-30T08:11:44.594Z,101452.19
2018-09-30T08:12:50.217Z,101452.98
2018-09-30T08:13:55.767Z,101452.56
2018-09-30T08:15:01.249Z,101447.45
2018-09-30T08:16:06.722Z,101452.52
2018-09-30T08:17:12.309Z,101457.17
2018-09-30T08:18:18.065Z,101454.56
2018-09-30T08:19:23.893Z,101454.11
2018-09-30T08:20:29.514Z,101451.89
2018-09-30T08:21:35.109Z,101450.96
2018-09-30T08:22:40.647Z,101451.76
2018-09-30T08:23:46.135Z,101449.97
2018-09-30T08:24:51.992Z,101454.99
2018-09-30T08:25:57.523Z,101457.92
2018-09-30T08:27:03.096Z,101457.80
2018-09-30T08:28:08.772Z,101459.42
2018-09-30T08:29:14.269Z,101461.06
2018-09-30T08:30:19.890Z,101458.97
2018-09-30T08:31:25.449Z,101460.59
2018-09-30T08:32:30.880Z,101459.16
2018-09-30T08:33:36.461Z,101456.91
2018-09-30T08:34:42.157Z,101451.72
2018-09-30T08:35:52.927Z,101452.08
2018-09-30T08:36:58.727Z,101454.13
2018-09-30T08:38:09.621Z,101453.98
2018-09-30T08:39:15.712Z,101451.66
2018-09-30T08:40:30.474Z,101454.13
2018-09-30T08:41:36.217Z,101444.61
2018-09-30T08:42:41.652Z,101448.30
2018-09-30T08:43:47.168Z,101446.88
2018-09-30T08:44:52.713Z,101445.49
2018-09-30T08:45:58.389Z,101438.48
2018-09-30T08:47:03.927Z,101441.78
2018-09-30T08:48:09.424Z,101439.92
2018-09-30T08:49:15.022Z,101435.83
2018-09-30T08:50:20.500Z,101439.53
2018-09-30T08:51:26.004Z,101440.69
2018-09-30T08:52:31.585Z,101431.98
2018-09-30T08:53:37.225Z,101435.28
2018-09-30T08:54:42.691Z,101434.68
2018-09-30T08:55:48.273Z,101434.58
2018-09-30T08:56:53.958Z,101440.84
2018-09-30T08:57:59.765Z,101433.09
2018-09-30T08:59:05.285Z,101435.97
2018-09-30T09:00:10.783Z,101434.06
2018-09-30T09:01:16.225Z,101430.91
2018-09-30T09:02:21.660Z,101427.81
2018-09-30T09:03:28.805Z,101423.98
2018-09-30T09:04:34.386Z,101423.92
2018-09-30T09:05:39.896Z,101425.21
2018-09-30T09:06:45.326Z,101426.52
2018-09-30T09:07:50.809Z,101430.37
2018-09-30T09:08:56.348Z,101426.83
2018-09-30T09:10:02.215Z,101429.66
2018-09-30T09:11:08.368Z,101426.88
2018-09-30T09:12:14.040Z,101421.94
2018-09-30T09:13:19.596Z,101420.44
2018-09-30T09:14:25.018Z,101415.09
2018-09-30T09:15:30.576Z,101415.29
2018-09-30T09:16:36.001Z,101416.03
2018-09-30T09:17:41.422Z,101414.11
2018-09-30T09:18:47.020Z,101415.59
2018-09-30T09:19:52.501Z,101411.92
2018-09-30T09:20:57.954Z,101414.27
2018-09-30T09:22:03.575Z,101409.75
2018-09-30T09:23:09.068Z,101410.42
2018-09-30T09:24:14.612Z,101415.33
2018-09-30T09:25:20.367Z,101417.73
2018-09-30T09:26:26.085Z,101419.64
2018-09-30T09:27:31.529Z,101416.44
2018-09-30T09:28:37.052Z,101414.48
2018-09-30T09:29:42.602Z,101403.53
2018-09-30T09:30:48.081Z,101402.94
2018-09-30T09:31:53.933Z,101404.83
2018-09-30T09:32:59.743Z,101400.73
2018-09-30T09:34:05.229Z,101400.47
2018-09-30T09:35:11.127Z,101397.31
2018-09-30T09:36:16.497Z,101401.48
2018-09-30T09:37:21.948Z,101399.63
2018-09-30T09:38:27.433Z,101405.16
2018-09-30T09:39:32.920Z,101399.30
2018-09-30T09:40:38.568Z,101396.53
2018-09-30T09:41:44.113Z,101391.20
2018-09-30T09:42:49.606Z,101384.97
2018-09-30T09:43:55.287Z,101390.67
2018-09-30T09:45:01.295Z,101392.17
2018-09-30T09:46:06.825Z,101391.12
2018-09-30T09:47:12.365Z,101391.04
2018-09-30T09:48:17.797Z,101395.11
2018-09-30T09:49:23.328Z,101384.82
2018-09-30T09:50:28.845Z,101375.16
2018-09-30T09:51:34.371Z,101375.98
2018-09-30T09:52:39.862Z,101371.90
2018-09-30T09:53:45.577Z,101372.55
2018-09-30T09:54:51.023Z,101374.08
2018-09-30T09:55:56.487Z,101377.81
2018-09-30T09:57:02.075Z,101379.34
2018-09-30T09:58:07.724Z,101375.53
2018-09-30T09:59:13.310Z,101378.25
2018-09-30T10:00:23.893Z,101370.86
2018-09-30T10:01:29.318Z,101375.12
2018-09-30T10:02:34.777Z,101371.05
2018-09-30T10:03:40.206Z,101373.41
2018-09-30T10:04:45.949Z,101374.28
2018-09-30T10:05:51.436Z,101367.22
2018-09-30T10:06:56.898Z,101366.16
2018-09-30T10:08:02.694Z,101366.61
2018-09-30T10:09:08.305Z,101365.50
2018-09-30T10:10:14.005Z,101361.39
2018-09-30T10:11:19.600Z,101362.30
2018-09-30T10:12:25.275Z,101363.50
2018-09-30T10:13:30.776Z,101361.23
2018-09-30T10:14:36.372Z,101362.08
2018-09-30T10:15:41.803Z,101362.77
2018-09-30T10:16:47.213Z,101356.80
2018-09-30T10:17:52.650Z,101356.69
2018-09-30T10:18:58.188Z,101356.23
2018-09-30T10:20:03.661Z,101358.19
2018-09-30T10:21:09.423Z,101353.09
2018-09-30T10:22:14.854Z,101354.23
2018-09-30T10:23:20.456Z,101355.92
2018-09-30T10:24:25.989Z,101350.67
2018-09-30T10:25:31.603Z,101350.24
2018-09-30T10:26:37.032Z,101348.95
2018-09-30T10:27:42.473Z,101345.02
2018-09-30T10:28:48.045Z,101347.09
2018-09-30T10:29:53.510Z,101345.50
2018-09-30T10:30:59.356Z,101342.08
2018-09-30T10:32:05.088Z,101344.26
2018-09-30T10:33:10.812Z,101340.94
2018-09-30T10:34:16.706Z,101340.48
2018-09-30T10:35:22.721Z,101345.09
2018-09-30T10:36:28.582Z,101345.30
2018-09-30T10:37:34.432Z,101345.45
2018-09-30T10:38:40.446Z,101346.55
2018-09-30T10:39:46.375Z,101338.67
2018-09-30T10:40:52.195Z,101336.75
2018-09-30T10:41:57.869Z,101334.84
2018-09-30T10:43:03.706Z,101330.81
2018-09-30T10:44:09.449Z,101331.62
2018-09-30T10:45:14.914Z,101329.34
2018-09-30T10:46:21.293Z,101331.22
2018-09-30T10:47:27.078Z,101326.25
2018-09-30T10:48:32.590Z,101322.51
2018-09-30T10:49:38.013Z,101327.22
2018-09-30T10:50:43.941Z,101326.48
2018-09-30T10:51:49.464Z,101324.55
2018-09-30T10:52:55.049Z,101328.61
2018-09-30T10:54:00.804Z,101326.62
2018-09-30T10:55:06.609Z,101328.00
2018-09-30T10:56:12.253Z,101327.27
2018-09-30T10:57:17.997Z,101322.27
2018-09-30T10:58:23.605Z,101324.98
2018-09-30T10:59:29.270Z,101321.70
2018-09-30T11:00:34.701Z,101318.06
2018-09-30T11:01:40.248Z,101324.72
2018-09-30T11:02:46.361Z,101320.97
2018-09-30T11:03:52.155Z,101321.62
2018-09-30T11:04:57.908Z,101324.55
2018-09-30T11:06:03.654Z,101324.36
2018-09-30T11:07:09.173Z,101318.20
2018-09-30T11:08:14.834Z,101314.69
2018-09-30T11:09:20.677Z,101313.52
2018-09-30T11:10:26.170Z,101310.87
2018-09-30T11:11:31.986Z,101317.41
2018-09-30T11:12:37.844Z,101312.50
2018-09-30T11:13:43.533Z,101317.92
2018-09-30T11:14:49.075Z,101315.69
2018-09-30T11:15:54.821Z,101311.41
2018-09-30T11:17:00.248Z,101307.18
2018-09-30T11:18:05.809Z,101300.42
2018-09-30T11:19:11.253Z,101295.12
2018-09-30T11:20:17.477Z,101298.82
2018-09-30T11:21:23.105Z,101295.17
2018-09-30T11:22:29.118Z,101291.69
2018-09-30T11:23:34.689Z,101295.95
2018-09-30T11:24:40.300Z,101289.87
2018-09-30T11:25:46.157Z,101291.75
2018-09-30T11:26:52.188Z,101295.39
2018-09-30T11:27:58.011Z,101289.34
2018-09-30T11:29:03.743Z,101292.22
2018-09-30T11:30:09.459Z,101287.22
2018-09-30T11:31:15.330Z,101287.93
2018-09-30T11:32:21.229Z,101283.21
2018-09-30T11:33:27.183Z,101283.80
2018-09-30T11:34:36.744Z,101283.55
2018-09-30T11:35:43.034Z,101278.95
2018-09-30T11:36:48.797Z,101277.48
2018-09-30T11:37:54.661Z,101275.84
2018-09-30T11:39:04.662Z,101274.94
2018-09-30T11:40:11.824Z,101278.75
2018-09-30T11:41:18.253Z,101278.07
2018-09-30T11:42:23.832Z,101276.69
2018-09-30T11:43:29.774Z,101276.82
2018-09-30T11:44:35.597Z,101267.56
2018-09-30T11:45:41.704Z,101272.86
2018-09-30T11:46:47.764Z,101264.63
2018-09-30T11:47:53.413Z,101263.09
2018-09-30T11:48:59.000Z,101265.81
2018-09-30T11:50:04.843Z,101261.16
2018-09-30T11:51:10.594Z,101256.34
2018-09-30T11:52:16.389Z,101260.30
2018-09-30T11:53:22.013Z,101259.43
2018-09-30T11:54:28.226Z,101258.90
2018-09-30T11:55:44.020Z,101255.19
2018-09-30T11:56:49.972Z,101254.00
2018-09-30T11:58:06.973Z,101254.76
2018-09-30T11:59:13.368Z,101248.00
2018-09-30T12:00:21.521Z,101241.91
2018-09-30T12:01:27.008Z,101249.29
2018-09-30T12:02:32.629Z,101243.39
2018-09-30T12:03:38.157Z,101240.44
2018-09-30T12:04:44.023Z,101242.67
2018-09-30T12:05:49.720Z,101241.38
2018-09-30T12:06:55.701Z,101242.31
2018-09-30T12:08:01.157Z,101229.34
2018-09-30T12:09:09.264Z,101237.03
2018-09-30T12:10:14.805Z,101228.88
2018-09-30T12:11:20.702Z,101228.94
2018-09-30T12:12:26.165Z,101220.25
2018-09-30T12:13:31.665Z,101218.69
2018-09-30T12:14:37.836Z,101221.36
2018-09-30T12:15:43.261Z,101226.17
2018-09-30T12:16:49.259Z,101221.44
2018-09-30T12:17:55.233Z,101218.92
2018-09-30T12:19:01.054Z,101214.88
2018-09-30T12:20:07.163Z,101214.36
2018-09-30T12:21:13.027Z,101209.70
2018-09-30T12:22:18.746Z,101208.77
2018-09-30T12:23:24.265Z,101209.47
2018-09-30T12:24:30.229Z,101202.73
2018-09-30T12:25:36.328Z,101204.19
2018-09-30T12:26:41.900Z,101200.29
2018-09-30T12:27:47.704Z,101200.83
2018-09-30T12:28:53.701Z,101205.77
2018-09-30T12:29:59.448Z,101197.04
2018-09-30T12:31:04.966Z,101203.06